Time;durP1;ratioP1;P1;durP2;ratioP2;P2;SDS_P1;SDS_P2;PMS_P1;PMS_P2;Temp;Humidity;BMP_temperature;BMP_pressure;BME280_temperature;BME280_humidity;BME280_pressure;Samples;Min_cycle;Max_cycle;Signal;HPM_P1;HPM_P2
2021/12/02 00:01:47;;;;;;;;;;;;;;;;;;5005446;28;20028;-68
2021/12/02 00:04:14;;;;;;;;;;;;;;;;;;5008598;28;19926;-68
2021/12/02 00:06:41;;;;;;;;;;;;;;;;;;5005809;28;20032;-69
2021/12/02 00:09:08;;;;;;;;;;;;;;;;;;5005661;28;19929;-69
2021/12/02 00:11:35;;;;;;;;;;;;;;;;;;5008962;28;19925;-69
2021/12/02 00:14:08;;;;;;;;;;;;;;;;;;5009075;28;19932;-68
2021/12/02 00:16:38;;;;;;;;;;;;;;;;;;5008691;28;20270;-68
2021/12/02 00:21:53;;;;;;;;;;;;;;;;;;5011845;28;19920;-68
2021/12/02 00:24:20;;;;;;;;;;;;;;;;;;5016555;28;19932;-68
2021/12/02 00:26:47;;;;;;;;;;;;;;;;;;5003551;28;19926;-67
2021/12/02 00:29:14;;;;;;;;;;;;;;;;;;5003285;28;19976;-68
2021/12/02 00:31:42;;;;;;;;;;;;;;;;;;5007034;28;19925;-68
2021/12/02 00:34:09;;;;;;;;;;;;;;;;;;5011017;28;20378;-68
2021/12/02 00:36:36;;;;;;;;;;;;;;;;;;5007251;28;19932;-68
2021/12/02 00:39:03;;;;;;;;;;;;;;;;;;5007991;28;19926;-68
2021/12/02 00:41:30;;;;;;;;;;;;;;;;;;5009941;28;19936;-68
2021/12/02 00:43:57;;;;;;;;;;;;;;;;;;5010063;28;19926;-68
2021/12/02 00:46:24;;;;;;;;;;;;;;;;;;5006831;28;19925;-68
2021/12/02 00:48:51;;;;;;;;;;;;;;;;;;5006174;28;20113;-68
2021/12/02 00:51:17;;;;;;;;;;;;;;;;;;5005812;28;20319;-68
2021/12/02 00:53:46;;;;;;;;;;;;;;;;;;5009057;28;19933;-68
2021/12/02 00:56:13;;;;;;;;;;;;;;;;;;5010345;28;19936;-68
2021/12/02 00:58:40;;;;;;;;;;;;;;;;;;5005953;28;19972;-68
2021/12/02 01:01:08;;;;;;;;;;;;;;;;;;5007954;28;19925;-68
2021/12/02 01:03:36;;;;;;;;;;;;;;;;;;5006433;28;19979;-68
2021/12/02 01:06:04;;;;;;;;;;;;;;;;;;5005054;28;19929;-67
2021/12/02 01:08:31;;;;;;;;;;;;;;;;;;5008307;28;20463;-68
2021/12/02 01:10:58;;;;;;;;;;;;;;;;;;5008707;28;19933;-68
2021/12/02 01:13:25;;;;;;;;;;;;;;;;;;5004266;28;19933;-68
2021/12/02 01:15:52;;;;;;;;;;;;;;;;;;5006126;28;20290;-68
2021/12/02 01:18:19;;;;;;;;;;;;;;;;;;5006276;28;19929;-68
2021/12/02 01:20:46;;;;;;;;;;;;;;;;;;5003483;28;20023;-68
2021/12/02 01:23:13;;;;;;;;;;;;;;;;;;5009428;28;19979;-68
2021/12/02 01:25:40;;;;;;;;;;;;;;;;;;5008839;28;19940;-68
2021/12/02 01:28:07;;;;;;;;;;;;;;;;;;5005475;28;19956;-68
2021/12/02 01:30:34;;;;;;;;;;;;;;;;;;5006840;28;19925;-68
2021/12/02 01:33:01;;;;;;;;;;;;;;;;;;5000714;28;19948;-69
2021/12/02 01:35:27;;;;;;;;;;;;;;;;;;5010405;28;20341;-68
2021/12/02 01:37:54;;;;;;;;;;;;;;;;;;5005167;28;19930;-69
2021/12/02 01:40:21;;;;;;;;;;;;;;;;;;5007243;28;19926;-68
2021/12/02 01:42:48;;;;;;;;;;;;;;;;;;5008311;28;19936;-68
2021/12/02 01:45:15;;;;;;;;;;;;;;;;;;5009622;28;19929;-68
2021/12/02 01:47:42;;;;;;;;;;;;;;;;;;5002512;28;19930;-68
2021/12/02 01:50:09;;;;;;;;;;;;;;;;;;5010075;28;19984;-68
2021/12/02 01:52:36;;;;;;;;;;;;;;;;;;5006724;28;19932;-68
2021/12/02 01:55:03;;;;;;;;;;;;;;;;;;5008173;28;20319;-68
2021/12/02 01:57:30;;;;;;;;;;;;;;;;;;5006387;28;19973;-68
2021/12/02 01:59:57;;;;;;;;;;;;;;;;;;5007226;28;20370;-68
2021/12/02 02:02:24;;;;;;;;;;;;;;;;;;5005322;28;19932;-68
2021/12/02 02:04:51;;;;;;;;;;;;;;;;;;5009257;28;19925;-68
2021/12/02 02:07:18;;;;;;;;;;;;;;;;;;5008181;28;19929;-68
2021/12/02 02:09:44;;;;;;;;;;;;;;;;;;5007889;28;20012;-68
2021/12/02 02:12:11;;;;;;;;;;;;;;;;;;5006265;28;19925;-70
2021/12/02 02:14:38;;;;;;;;;;;;;;;;;;5007734;28;20413;-68
2021/12/02 02:17:07;;;;;;;;;;;;;;;;;;5006234;28;19925;-67
2021/12/02 02:19:34;;;;;;;;;;;;;;;;;;5006195;28;19926;-68
2021/12/02 02:22:01;;;;;;;;;;;;;;;;;;5005852;28;19956;-67
2021/12/02 02:24:29;;;;;;;;;;;;;;;;;;5010334;28;20378;-68
2021/12/02 02:26:56;;;;;;;;;;;;;;;;;;5009316;28;20020;-68
2021/12/02 02:29:23;;;;;;;;;;;;;;;;;;5008765;28;19932;-68
2021/12/02 02:31:50;;;;;;;;;;;;;;;;;;5012718;28;19929;-68
2021/12/02 02:34:17;;;;;;;;;;;;;;;;;;5009904;28;19975;-70
2021/12/02 02:36:50;;;;;;;;;;;;;;;;;;5010296;28;19933;-68
2021/12/02 02:39:17;;;;;;;;;;;;;;;;;;5008053;28;19926;-69
2021/12/02 02:41:46;;;;;;;;;;;;;;;;;;5004908;28;19926;-69
2021/12/02 02:44:13;;;;;;;;;;;;;;;;;;5011281;28;19932;-68
2021/12/02 02:46:40;;;;;;;;;;;;;;;;;;5011261;28;19965;-68
2021/12/02 02:49:07;;;;;;;;;;;;;;;;;;5011051;28;19933;-69
2021/12/02 02:51:34;;;;;;;;;;;;;;;;;;5010844;28;19926;-68
2021/12/02 02:54:04;;;;;;;;;;;;;;;;;;5006142;28;19980;-68
2021/12/02 02:56:31;;;;;;;;;;;;;;;;;;5010750;28;19932;-68
2021/12/02 02:59:04;;;;;;;;;;;;;;;;;;5008839;28;20386;-69
2021/12/02 03:01:40;;;;;;;;;;;;;;;;;;5011363;28;19926;-68
2021/12/02 03:04:15;;;;;;;;;;;;;;;;;;5009747;28;19934;-68
2021/12/02 03:06:49;;;;;;;;;;;;;;;;;;5011022;28;19933;-68
2021/12/02 03:09:22;;;;;;;;;;;;;;;;;;5010445;28;19932;-68
2021/12/02 03:11:52;;;;;;;;;;;;;;;;;;5004342;28;19937;-68
2021/12/02 03:14:22;;;;;;;;;;;;;;;;;;5010568;28;20302;-69
2021/12/02 03:16:48;;;;;;;;;;;;;;;;;;5009800;28;19936;-69
2021/12/02 03:19:15;;;;;;;;;;;;;;;;;;5013682;28;20012;-68
2021/12/02 03:21:42;;;;;;;;;;;;;;;;;;5009360;28;19947;-68
2021/12/02 03:24:09;;;;;;;;;;;;;;;;;;5011226;28;20282;-68
2021/12/02 03:26:36;;;;;;;;;;;;;;;;;;5001715;28;20399;-68
2021/12/02 03:29:03;;;;;;;;;;;;;;;;;;5011133;28;19925;-68
2021/12/02 03:31:30;;;;;;;;;;;;;;;;;;5011900;28;19926;-67
2021/12/02 03:33:57;;;;;;;;;;;;;;;;;;5008934;28;19925;-67
2021/12/02 03:36:23;;;;;;;;;;;;;;;;;;5011313;28;20274;-66
2021/12/02 03:38:50;;;;;;;;;;;;;;;;;;5007696;28;19933;-67
2021/12/02 03:41:17;;;;;;;;;;;;;;;;;;5005404;28;19926;-66
2021/12/02 03:43:44;;;;;;;;;;;;;;;;;;5009016;28;19935;-67
2021/12/02 03:46:11;;;;;;;;;;;;;;;;;;5011471;28;19932;-67
2021/12/02 03:48:39;;;;;;;;;;;;;;;;;;5009603;28;19932;-66
2021/12/02 03:51:06;;;;;;;;;;;;;;;;;;5002514;28;20102;-67
2021/12/02 03:53:33;;;;;;;;;;;;;;;;;;5010023;28;19933;-67
2021/12/02 03:56:01;;;;;;;;;;;;;;;;;;5013004;28;19936;-67
2021/12/02 03:58:28;;;;;;;;;;;;;;;;;;5010920;28;20305;-66
2021/12/02 04:00:54;;;;;;;;;;;;;;;;;;5008473;28;19937;-67
2021/12/02 04:03:21;;;;;;;;;;;;;;;;;;5005203;28;19933;-66
2021/12/02 04:05:48;;;;;;;;;;;;;;;;;;5010725;28;20385;-66
2021/12/02 04:08:16;;;;;;;;;;;;;;;;;;5007914;28;19925;-67
2021/12/02 04:10:44;;;;;;;;;;;;;;;;;;5006688;28;19948;-67
2021/12/02 04:13:16;;;;;;;;;;;;;;;;;;5010686;28;20293;-67
2021/12/02 04:15:50;;;;;;;;;;;;;;;;;;5011374;28;19926;-67
2021/12/02 04:18:19;;;;;;;;;;;;;;;;;;5011159;28;19932;-66
2021/12/02 04:20:46;;;;;;;;;;;;;;;;;;5011641;28;19932;-67
2021/12/02 04:23:13;;;;;;;;;;;;;;;;;;5011184;28;19934;-66
2021/12/02 04:25:40;;;;;;;;;;;;;;;;;;5011572;28;19937;-67
2021/12/02 04:28:07;;;;;;;;;;;;;;;;;;5005327;28;19933;-67
2021/12/02 04:30:34;;;;;;;;;;;;;;;;;;5009932;28;20309;-67
2021/12/02 04:33:01;;;;;;;;;;;;;;;;;;5006263;28;20024;-67
2021/12/02 04:35:28;;;;;;;;;;;;;;;;;;5008896;28;19933;-67
2021/12/02 04:37:55;;;;;;;;;;;;;;;;;;5008487;28;20406;-66
2021/12/02 04:40:24;;;;;;;;;;;;;;;;;;5010977;28;20263;-67
2021/12/02 04:42:51;;;;;;;;;;;;;;;;;;5009151;28;19932;-67
2021/12/02 04:45:18;;;;;;;;;;;;;;;;;;5006809;28;19925;-67
2021/12/02 04:47:45;;;;;;;;;;;;;;;;;;5010298;28;19926;-67
2021/12/02 04:50:12;;;;;;;;;;;;;;;;;;5004212;28;19930;-66
2021/12/02 04:52:39;;;;;;;;;;;;;;;;;;5005506;28;19926;-67
2021/12/02 04:55:06;;;;;;;;;;;;;;;;;;5005633;28;19932;-67
2021/12/02 04:57:33;;;;;;;;;;;;;;;;;;5004247;28;19944;-66
2021/12/02 05:00:00;;;;;;;;;;;;;;;;;;5011142;28;20290;-66
2021/12/02 05:02:27;;;;;;;;;;;;;;;;;;5006401;28;19925;-67
2021/12/02 05:04:54;;;;;;;;;;;;;;;;;;5007027;28;19936;-67
2021/12/02 05:07:20;;;;;;;;;;;;;;;;;;5009199;28;19941;-67
2021/12/02 05:09:47;;;;;;;;;;;;;;;;;;5005596;28;20278;-67
2021/12/02 05:12:14;;;;;;;;;;;;;;;;;;5009411;28;19929;-67
2021/12/02 05:14:41;;;;;;;;;;;;;;;;;;5010225;28;20246;-67
2021/12/02 05:17:08;;;;;;;;;;;;;;;;;;5009558;28;19932;-67
2021/12/02 05:19:35;;;;;;;;;;;;;;;;;;5006485;28;19932;-67
2021/12/02 05:22:02;;;;;;;;;;;;;;;;;;5004203;28;20293;-67
2021/12/02 05:24:29;;;;;;;;;;;;;;;;;;5010619;28;19925;-67
2021/12/02 05:26:56;;;;;;;;;;;;;;;;;;5009074;28;19929;-67
2021/12/02 05:29:23;;;;;;;;;;;;;;;;;;5009593;28;19925;-67
2021/12/02 05:31:50;;;;;;;;;;;;;;;;;;5025169;22;19929;-67
2021/12/02 05:34:17;;;;;;;;;;;;;;;;;;5030257;28;20023;-68
2021/12/02 05:36:44;;;;;;;;;;;;;;;;;;5025581;28;19933;-68
2021/12/02 05:39:11;;;;;;;;;;;;;;;;;;5025044;28;19951;-68
2021/12/02 05:41:38;;;;;;;;;;;;;;;;;;5025024;28;19925;-68
2021/12/02 05:44:05;;;;;;;;;;;;;;;;;;5006590;28;19929;-68
2021/12/02 05:46:32;;;;;;;;;;;;;;;;;;5010187;28;20413;-68
2021/12/02 05:48:59;;;;;;;;;;;;;;;;;;5010071;28;19965;-68
2021/12/02 05:51:26;;;;;;;;;;;;;;;;;;5010407;28;20419;-68
2021/12/02 05:53:53;;;;;;;;;;;;;;;;;;5000724;28;19929;-68
2021/12/02 05:56:20;;;;;;;;;;;;;;;;;;5004879;28;19931;-68
2021/12/02 05:58:47;;;;;;;;;;;;;;;;;;5004260;28;20393;-69
2021/12/02 06:01:14;;;;;;;;;;;;;;;;;;5003084;28;19926;-68
2021/12/02 06:03:41;;;;;;;;;;;;;;;;;;5000001;28;19925;-68
2021/12/02 06:06:08;;;;;;;;;;;;;;;;;;4999459;28;20304;-68
2021/12/02 06:08:36;;;;;;;;;;;;;;;;;;5002749;28;19933;-67
2021/12/02 06:11:03;;;;;;;;;;;;;;;;;;5004691;28;19936;-67
2021/12/02 06:13:30;;;;;;;;;;;;;;;;;;5001980;28;19926;-67
2021/12/02 06:15:57;;;;;;;;;;;;;;;;;;5003423;28;19933;-67
2021/12/02 06:18:24;;;;;;;;;;;;;;;;;;4997418;28;20312;-68
2021/12/02 06:20:53;;;;;;;;;;;;;;;;;;5016963;28;19929;-67
2021/12/02 06:23:21;;;;;;;;;;;;;;;;;;5003649;28;20465;-67
2021/12/02 06:25:48;;;;;;;;;;;;;;;;;;5002976;28;19929;-67
2021/12/02 06:28:17;;;;;;;;;;;;;;;;;;5014975;28;19936;-67
2021/12/02 06:30:44;;;;;;;;;;;;;;;;;;4998210;28;20378;-67
2021/12/02 06:33:11;;;;;;;;;;;;;;;;;;5023003;28;20306;-67
2021/12/02 06:35:38;;;;;;;;;;;;;;;;;;5023929;28;19933;-67
2021/12/02 06:38:05;;;;;;;;;;;;;;;;;;5022355;28;19932;-67
2021/12/02 06:40:34;;;;;;;;;;;;;;;;;;5043757;28;19925;-67
2021/12/02 06:43:01;;;;;;;;;;;;;;;;;;5022220;28;19932;-67
2021/12/02 06:45:28;;;;;;;;;;;;;;;;;;5024487;28;19925;-67
2021/12/02 06:47:58;;;;;;;;;;;;;;;;;;5020168;28;19929;-67
2021/12/02 06:50:25;;;;;;;;;;;;;;;;;;5021265;28;20312;-67
2021/12/02 06:52:52;;;;;;;;;;;;;;;;;;5021061;28;20110;-68
2021/12/02 06:55:19;;;;;;;;;;;;;;;;;;5027568;28;19931;-68
2021/12/02 06:57:46;;;;;;;;;;;;;;;;;;5027896;28;20370;-68
2021/12/02 07:00:13;;;;;;;;;;;;;;;;;;5045287;28;19931;-68
2021/12/02 07:02:40;;;;;;;;;;;;;;;;;;5021808;28;19935;-69
2021/12/02 07:05:07;;;;;;;;;;;;;;;;;;5024892;28;20285;-68
2021/12/02 07:07:36;;;;;;;;;;;;;;;;;;5021642;28;19937;-68
2021/12/02 07:10:03;;;;;;;;;;;;;;;;;;5024636;28;19961;-68
2021/12/02 07:12:32;;;;;;;;;;;;;;;;;;5023118;28;19987;-68
2021/12/02 07:15:05;;;;;;;;;;;;;;;;;;5020948;28;19933;-68
2021/12/02 07:17:32;;;;;;;;;;;;;;;;;;5027321;28;19979;-68
2021/12/02 07:19:59;;;;;;;;;;;;;;;;;;5019653;28;19926;-67
2021/12/02 07:22:26;;;;;;;;;;;;;;;;;;5025499;28;19925;-68
2021/12/02 07:24:53;;;;;;;;;;;;;;;;;;5029491;28;20352;-68
2021/12/02 07:27:20;;;;;;;;;;;;;;;;;;5032527;28;19980;-67
2021/12/02 07:29:47;;;;;;;;;;;;;;;;;;5029648;28;19933;-68
2021/12/02 07:32:14;;;;;;;;;;;;;;;;;;5024028;28;20297;-68
2021/12/02 07:34:42;;;;;;;;;;;;;;;;;;5017852;28;19933;-68
2021/12/02 07:37:09;;;;;;;;;;;;;;;;;;5021857;28;20302;-68
2021/12/02 07:39:36;;;;;;;;;;;;;;;;;;5025640;28;19929;-68
2021/12/02 07:42:03;;;;;;;;;;;;;;;;;;5020083;28;19926;-68
2021/12/02 07:44:30;;;;;;;;;;;;;;;;;;5018834;28;19936;-68
2021/12/02 07:46:58;;;;;;;;;;;;;;;;;;5020117;28;19925;-68
2021/12/02 07:49:25;;;;;;;;;;;;;;;;;;5020225;28;19929;-68
2021/12/02 07:51:52;;;;;;;;;;;;;;;;;;5018746;28;19964;-68
2021/12/02 07:54:19;;;;;;;;;;;;;;;;;;5020679;28;20012;-68
2021/12/02 07:56:46;;;;;;;;;;;;;;;;;;5021176;28;19925;-68
2021/12/02 07:59:14;;;;;;;;;;;;;;;;;;5021398;28;19925;-68
2021/12/02 08:01:41;;;;;;;;;;;;;;;;;;5016843;28;19964;-68
2021/12/02 08:04:08;;;;;;;;;;;;;;;;;;5023667;28;19930;-67
2021/12/02 08:06:35;;;;;;;;;;;;;;;;;;5017576;28;20519;-68
2021/12/02 08:09:02;;;;;;;;;;;;;;;;;;5020893;28;19948;-68
2021/12/02 08:11:29;;;;;;;;;;;;;;;;;;5020187;28;20052;-68
2021/12/02 08:13:57;;;;;;;;;;;;;;;;;;5019827;28;20016;-68
2021/12/02 08:16:24;;;;;;;;;;;;;;;;;;5020881;28;19979;-68
2021/12/02 08:18:51;;;;;;;;;;;;;;;;;;5029483;28;20308;-68
2021/12/02 08:21:18;;;;;;;;;;;;;;;;;;5040812;28;19925;-68
2021/12/02 08:23:45;;;;;;;;;;;;;;;;;;5030655;28;19948;-68
2021/12/02 08:26:13;;;;;;;;;;;;;;;;;;5033743;28;19925;-69
2021/12/02 08:28:40;;;;;;;;;;;;;;;;;;5034046;28;19932;-67
2021/12/02 08:31:07;;;;;;;;;;;;;;;;;;5037031;28;20411;-67
2021/12/02 08:33:34;;;;;;;;;;;;;;;;;;5033668;28;19936;-67
2021/12/02 08:36:01;;;;;;;;;;;;;;;;;;5027624;28;19929;-66
2021/12/02 08:38:32;;;;;;;;;;;;;;;;;;5029739;28;19925;-68
2021/12/02 08:40:59;;;;;;;;;;;;;;;;;;5028777;28;19925;-68
2021/12/02 08:43:26;;;;;;;;;;;;;;;;;;5031279;28;19929;-68
2021/12/02 08:45:53;;;;;;;;;;;;;;;;;;5033052;28;19972;-68
2021/12/02 08:48:20;;;;;;;;;;;;;;;;;;5039185;28;19930;-68
2021/12/02 08:50:47;;;;;;;;;;;;;;;;;;5033044;28;19925;-68
2021/12/02 08:53:14;;;;;;;;;;;;;;;;;;5039457;28;19932;-68
2021/12/02 08:55:41;;;;;;;;;;;;;;;;;;5037819;28;19925;-68
2021/12/02 08:58:09;;;;;;;;;;;;;;;;;;5037942;28;19925;-68
2021/12/02 09:00:36;;;;;;;;;;;;;;;;;;5038314;28;19928;-68
2021/12/02 09:03:03;;;;;;;;;;;;;;;;;;5042933;28;19925;-66
2021/12/02 09:05:30;;;;;;;;;;;;;;;;;;5041349;28;20302;-66
2021/12/02 09:07:57;;;;;;;;;;;;;;;;;;5039307;28;19932;-66
2021/12/02 09:10:25;;;;;;;;;;;;;;;;;;5029926;28;19925;-68
2021/12/02 09:12:55;;;;;;;;;;;;;;;;;;5041199;28;19964;-68
2021/12/02 09:15:22;;;;;;;;;;;;;;;;;;5034738;28;19926;-68
2021/12/02 09:17:49;;;;;;;;;;;;;;;;;;5037560;28;19924;-68
2021/12/02 09:20:16;;;;;;;;;;;;;;;;;;5032047;28;20011;-68
2021/12/02 09:22:43;;;;;;;;;;;;;;;;;;5034253;28;19951;-66
2021/12/02 09:25:10;;;;;;;;;;;;;;;;;;5036218;28;19931;-69
2021/12/02 09:27:37;;;;;;;;;;;;;;;;;;5044442;28;20008;-66
2021/12/02 09:30:04;;;;;;;;;;;;;;;;;;5039361;28;20024;-67
2021/12/02 09:32:31;;;;;;;;;;;;;;;;;;5033092;28;19947;-66
2021/12/02 09:34:58;;;;;;;;;;;;;;;;;;5043041;28;19924;-67
2021/12/02 09:37:24;;;;;;;;;;;;;;;;;;5034056;28;19932;-68
2021/12/02 09:39:51;;;;;;;;;;;;;;;;;;5040963;28;19925;-67
2021/12/02 09:42:18;;;;;;;;;;;;;;;;;;5031127;28;20288;-67
2021/12/02 09:44:47;;;;;;;;;;;;;;;;;;5031393;28;19925;-66
2021/12/02 09:47:16;;;;;;;;;;;;;;;;;;5035842;28;19929;-66
2021/12/02 09:49:43;;;;;;;;;;;;;;;;;;5040553;28;19925;-67
2021/12/02 09:52:13;;;;;;;;;;;;;;;;;;5030274;28;19933;-68
2021/12/02 09:54:42;;;;;;;;;;;;;;;;;;5035190;28;19931;-68
2021/12/02 09:57:13;;;;;;;;;;;;;;;;;;5042581;28;20304;-68
2021/12/02 09:59:48;;;;;;;;;;;;;;;;;;5036435;28;20419;-68
2021/12/02 10:02:17;;;;;;;;;;;;;;;;;;5035395;28;20028;-69
2021/12/02 10:04:48;;;;;;;;;;;;;;;;;;5038463;28;19936;-68
2021/12/02 10:07:18;;;;;;;;;;;;;;;;;;5037313;28;19987;-68
2021/12/02 10:09:52;;;;;;;;;;;;;;;;;;5033145;28;19925;-68
2021/12/02 10:12:21;;;;;;;;;;;;;;;;;;5027474;28;19933;-68
2021/12/02 10:14:48;;;;;;;;;;;;;;;;;;5032295;28;20016;-68
2021/12/02 10:17:19;;;;;;;;;;;;;;;;;;5046892;28;19947;-68
2021/12/02 10:19:47;;;;;;;;;;;;;;;;;;5038819;28;20387;-68
2021/12/02 10:22:20;;;;;;;;;;;;;;;;;;5035031;28;20312;-68
2021/12/02 10:24:47;;;;;;;;;;;;;;;;;;5030377;28;19948;-66
2021/12/02 10:27:14;;;;;;;;;;;;;;;;;;5031114;28;19925;-67
2021/12/02 10:29:46;;;;;;;;;;;;;;;;;;5041207;28;19951;-68
2021/12/02 10:32:13;;;;;;;;;;;;;;;;;;5034169;28;19968;-68
2021/12/02 10:34:40;;;;;;;;;;;;;;;;;;5029649;28;20301;-68
2021/12/02 10:37:07;;;;;;;;;;;;;;;;;;5032150;28;19929;-66
2021/12/02 10:39:34;;;;;;;;;;;;;;;;;;5038283;28;19925;-68
2021/12/02 10:42:01;;;;;;;;;;;;;;;;;;5033303;28;19925;-68
2021/12/02 10:44:31;;;;;;;;;;;;;;;;;;5034103;28;20411;-68
2021/12/02 10:47:00;;;;;;;;;;;;;;;;;;5029256;28;20412;-67
2021/12/02 10:49:27;;;;;;;;;;;;;;;;;;5031943;28;19936;-67
2021/12/02 10:51:54;;;;;;;;;;;;;;;;;;5034344;28;20151;-67
2021/12/02 10:54:21;;;;;;;;;;;;;;;;;;5036666;28;19932;-67
2021/12/02 10:56:48;;;;;;;;;;;;;;;;;;5037790;28;19925;-66
2021/12/02 10:59:14;;;;;;;;;;;;;;;;;;5036408;28;20329;-67
2021/12/02 11:01:41;;;;;;;;;;;;;;;;;;5035475;28;19994;-67
2021/12/02 11:04:10;;;;;;;;;;;;;;;;;;5033358;28;20058;-67
2021/12/02 11:06:38;;;;;;;;;;;;;;;;;;5030976;28;20351;-67
2021/12/02 11:09:05;;;;;;;;;;;;;;;;;;5037931;28;19933;-66
2021/12/02 11:11:31;;;;;;;;;;;;;;;;;;5037112;28;19935;-66
2021/12/02 11:14:00;;;;;;;;;;;;;;;;;;5034244;28;20028;-68
2021/12/02 11:16:27;;;;;;;;;;;;;;;;;;5033521;28;19929;-67
2021/12/02 11:18:54;;;;;;;;;;;;;;;;;;5043874;28;19924;-67
2021/12/02 11:21:21;;;;;;;;;;;;;;;;;;5036213;28;20325;-68
2021/12/02 11:23:48;;;;;;;;;;;;;;;;;;5033677;28;19925;-67
2021/12/02 11:26:15;;;;;;;;;;;;;;;;;;5033457;28;20326;-68
2021/12/02 11:28:42;;;;;;;;;;;;;;;;;;5041214;28;20292;-67
2021/12/02 11:31:09;;;;;;;;;;;;;;;;;;5039509;28;19925;-68
2021/12/02 11:33:36;;;;;;;;;;;;;;;;;;5035323;22;19940;-69
2021/12/02 11:36:03;;;;;;;;;;;;;;;;;;5015098;28;20422;-69
2021/12/02 11:38:31;;;;;;;;;;;;;;;;;;5012921;28;20292;-69
2021/12/02 11:40:58;;;;;;;;;;;;;;;;;;5003815;28;20431;-69
2021/12/02 11:43:25;;;;;;;;;;;;;;;;;;5009324;28;19926;-69
2021/12/02 11:45:52;;;;;;;;;;;;;;;;;;5009197;28;19925;-69
2021/12/02 11:48:19;;;;;;;;;;;;;;;;;;5013380;28;19933;-68
2021/12/02 11:50:46;;;;;;;;;;;;;;;;;;5011380;28;19936;-68
2021/12/02 11:53:14;;;;;;;;;;;;;;;;;;5009891;28;20396;-68
2021/12/02 11:55:41;;;;;;;;;;;;;;;;;;5011185;28;19926;-69
2021/12/02 11:58:08;;;;;;;;;;;;;;;;;;5008361;28;19929;-69
2021/12/02 12:00:35;;;;;;;;;;;;;;;;;;5010307;28;19925;-69
2021/12/02 12:03:02;;;;;;;;;;;;;;;;;;5014063;28;20401;-67
2021/12/02 12:05:29;;;;;;;;;;;;;;;;;;5012836;28;19926;-69
2021/12/02 12:07:56;;;;;;;;;;;;;;;;;;5011931;28;19929;-67
2021/12/02 12:10:25;;;;;;;;;;;;;;;;;;5013040;28;20000;-70
2021/12/02 12:12:52;;;;;;;;;;;;;;;;;;5011566;28;20325;-67
2021/12/02 12:15:19;;;;;;;;;;;;;;;;;;5010882;28;20022;-69
2021/12/02 12:17:46;;;;;;;;;;;;;;;;;;5010913;28;19926;-69
2021/12/02 12:20:17;;;;;;;;;;;;;;;;;;5012819;28;19925;-67
2021/12/02 12:22:44;;;;;;;;;;;;;;;;;;5008892;28;20017;-68
2021/12/02 12:25:11;;;;;;;;;;;;;;;;;;5011937;28;20388;-68
2021/12/02 12:27:38;;;;;;;;;;;;;;;;;;5011630;28;19952;-70
2021/12/02 12:30:06;;;;;;;;;;;;;;;;;;5011409;28;19925;-70
2021/12/02 12:32:41;;;;;;;;;;;;;;;;;;5008228;28;19929;-69
2021/12/02 12:35:10;;;;;;;;;;;;;;;;;;5011889;28;19925;-69
2021/12/02 12:37:48;;;;;;;;;;;;;;;;;;5011399;28;20016;-69
2021/12/02 12:40:15;;;;;;;;;;;;;;;;;;5008139;28;19972;-66
2021/12/02 12:42:42;;;;;;;;;;;;;;;;;;5013896;28;19933;-71
2021/12/02 12:45:09;;;;;;;;;;;;;;;;;;5011815;28;19936;-68
2021/12/02 12:47:36;;;;;;;;;;;;;;;;;;5012652;28;19925;-69
2021/12/02 12:50:03;;;;;;;;;;;;;;;;;;5007687;28;19997;-70
2021/12/02 12:52:30;;;;;;;;;;;;;;;;;;5013420;28;19926;-69
2021/12/02 12:54:57;;;;;;;;;;;;;;;;;;5009284;28;20408;-70
2021/12/02 12:57:24;;;;;;;;;;;;;;;;;;5011269;28;19932;-70
2021/12/02 12:59:54;;;;;;;;;;;;;;;;;;5008385;28;19925;-70
2021/12/02 13:02:21;;;;;;;;;;;;;;;;;;5010462;28;19976;-70
2021/12/02 13:04:48;;;;;;;;;;;;;;;;;;5008106;28;19972;-70
2021/12/02 13:07:16;;;;;;;;;;;;;;;;;;5010951;28;19930;-69
2021/12/02 13:09:46;;;;;;;;;;;;;;;;;;5008870;28;20332;-69
2021/12/02 13:12:15;;;;;;;;;;;;;;;;;;5012316;28;19980;-70
2021/12/02 13:14:42;;;;;;;;;;;;;;;;;;5009986;28;20017;-67
2021/12/02 13:17:09;;;;;;;;;;;;;;;;;;5012239;28;19930;-69
2021/12/02 13:19:36;;;;;;;;;;;;;;;;;;5010705;28;20038;-68
2021/12/02 13:22:03;;;;;;;;;;;;;;;;;;5009759;28;19963;-68
2021/12/02 13:24:30;;;;;;;;;;;;;;;;;;5011247;28;19929;-69
2021/12/02 13:26:57;;;;;;;;;;;;;;;;;;5009744;28;19929;-69
2021/12/02 13:29:24;;;;;;;;;;;;;;;;;;5008627;28;20020;-69
2021/12/02 13:31:51;;;;;;;;;;;;;;;;;;5011651;28;19937;-70
2021/12/02 13:34:18;;;;;;;;;;;;;;;;;;5007690;28;20392;-70
2021/12/02 13:36:45;;;;;;;;;;;;;;;;;;5016392;28;19972;-69
2021/12/02 13:39:12;;;;;;;;;;;;;;;;;;5011796;28;20004;-70
2021/12/02 13:41:39;;;;;;;;;;;;;;;;;;5009115;28;19936;-70
2021/12/02 13:44:06;;;;;;;;;;;;;;;;;;5011682;28;20020;-68
2021/12/02 13:46:33;;;;;;;;;;;;;;;;;;5013238;28;19947;-68
2021/12/02 13:49:02;;;;;;;;;;;;;;;;;;5009510;28;19930;-69
2021/12/02 13:54:25;;;;;;;;;;;;;;;;;;5010376;28;19922;-67
2021/12/02 13:56:53;;;;;;;;;;;;;;;;;;5009283;28;19930;-69
2021/12/02 13:59:23;;;;;;;;;;;;;;;;;;5011281;28;19925;-65
2021/12/02 14:01:50;;;;;;;;;;;;;;;;;;5011426;28;19932;-66
2021/12/02 14:04:17;;;;;;;;;;;;;;;;;;5011666;28;19925;-65
2021/12/02 14:06:44;;;;;;;;;;;;;;;;;;5010902;28;19932;-66
2021/12/02 14:09:11;;;;;;;;;;;;;;;;;;5007398;28;20365;-65
2021/12/02 14:11:38;;;;;;;;;;;;;;;;;;5004523;28;19932;-67
2021/12/02 14:14:05;;;;;;;;;;;;;;;;;;5011983;28;19933;-66
2021/12/02 14:16:32;;;;;;;;;;;;;;;;;;5010786;28;19932;-68
2021/12/02 14:18:59;;;;;;;;;;;;;;;;;;5000760;28;20166;-65
2021/12/02 14:21:26;;;;;;;;;;;;;;;;;;5008627;28;19926;-68
2021/12/02 14:23:53;;;;;;;;;;;;;;;;;;5016592;28;19938;-66
2021/12/02 14:26:20;;;;;;;;;;;;;;;;;;5014997;28;19948;-69
2021/12/02 14:28:47;;;;;;;;;;;;;;;;;;5014024;28;19925;-67
2021/12/02 14:31:14;;;;;;;;;;;;;;;;;;5013101;28;19979;-68
2021/12/02 14:33:41;;;;;;;;;;;;;;;;;;5015216;28;19925;-66
2021/12/02 14:36:08;;;;;;;;;;;;;;;;;;5015769;28;19933;-70
2021/12/02 14:38:35;;;;;;;;;;;;;;;;;;5013060;28;19933;-67
2021/12/02 14:41:02;;;;;;;;;;;;;;;;;;5004235;28;20341;-65
2021/12/02 14:43:29;;;;;;;;;;;;;;;;;;5015717;28;20011;-66
2021/12/02 14:45:56;;;;;;;;;;;;;;;;;;5013347;28;19926;-66
2021/12/02 14:48:23;;;;;;;;;;;;;;;;;;5010290;28;20377;-67
2021/12/02 14:50:50;;;;;;;;;;;;;;;;;;5011613;28;19926;-66
2021/12/02 14:53:17;;;;;;;;;;;;;;;;;;5011828;28;19936;-67
2021/12/02 14:55:45;;;;;;;;;;;;;;;;;;5013403;28;20325;-66
2021/12/02 14:58:12;;;;;;;;;;;;;;;;;;5008764;28;20409;-67
2021/12/02 15:00:40;;;;;;;;;;;;;;;;;;5014391;28;19925;-67
2021/12/02 15:03:07;;;;;;;;;;;;;;;;;;5011787;28;19936;-71
2021/12/02 15:05:34;;;;;;;;;;;;;;;;;;5006429;28;19944;-66
2021/12/02 15:08:01;;;;;;;;;;;;;;;;;;5016068;28;20296;-66
2021/12/02 15:10:28;;;;;;;;;;;;;;;;;;5013809;28;19925;-67
2021/12/02 15:12:55;;;;;;;;;;;;;;;;;;5010653;28;20337;-72
2021/12/02 15:15:22;;;;;;;;;;;;;;;;;;5010626;28;19926;-66
2021/12/02 15:17:49;;;;;;;;;;;;;;;;;;5013027;28;19925;-65
2021/12/02 15:20:16;;;;;;;;;;;;;;;;;;5013564;28;19968;-68
2021/12/02 15:22:43;;;;;;;;;;;;;;;;;;5012715;28;19933;-65
2021/12/02 15:25:11;;;;;;;;;;;;;;;;;;5006463;28;19952;-70
2021/12/02 15:27:38;;;;;;;;;;;;;;;;;;5010313;28;19933;-67
2021/12/02 15:30:05;;;;;;;;;;;;;;;;;;5011997;28;19931;-68
2021/12/02 15:32:34;;;;;;;;;;;;;;;;;;5010973;28;19977;-69
2021/12/02 15:35:01;;;;;;;;;;;;;;;;;;5011724;28;19973;-66
2021/12/02 15:37:28;;;;;;;;;;;;;;;;;;5011167;28;19926;-66
2021/12/02 15:39:55;;;;;;;;;;;;;;;;;;5014171;28;19925;-68
2021/12/02 15:42:22;;;;;;;;;;;;;;;;;;5007652;28;20685;-67
2021/12/02 15:44:49;;;;;;;;;;;;;;;;;;5012899;28;20404;-67
2021/12/02 15:47:17;;;;;;;;;;;;;;;;;;5011407;28;19979;-70
2021/12/02 15:49:58;;;;;;;;;;;;;;;;;;5014452;28;20034;-66
2021/12/02 15:52:27;;;;;;;;;;;;;;;;;;5015286;28;19926;-69
2021/12/02 15:54:54;;;;;;;;;;;;;;;;;;5009482;28;19925;-67
2021/12/02 15:57:21;;;;;;;;;;;;;;;;;;5009890;28;19926;-67
2021/12/02 15:59:48;;;;;;;;;;;;;;;;;;5006796;28;19929;-68
2021/12/02 16:02:23;;;;;;;;;;;;;;;;;;5012300;28;20024;-65
2021/12/02 16:04:54;;;;;;;;;;;;;;;;;;5011782;28;19960;-65
2021/12/02 16:07:26;;;;;;;;;;;;;;;;;;5004518;28;20036;-66
2021/12/02 16:10:18;;;;;;;;;;;;;;;;;;5008565;28;19953;-67
2021/12/02 16:12:45;;;;;;;;;;;;;;;;;;5008212;28;19932;-67
2021/12/02 16:15:12;;;;;;;;;;;;;;;;;;5011986;28;19934;-70
2021/12/02 16:17:39;;;;;;;;;;;;;;;;;;5009983;28;19926;-66
2021/12/02 16:20:06;;;;;;;;;;;;;;;;;;5011188;28;19925;-67
2021/12/02 16:22:33;;;;;;;;;;;;;;;;;;5010661;28;19961;-66
2021/12/02 16:25:01;;;;;;;;;;;;;;;;;;5007452;28;20308;-66
2021/12/02 16:27:28;;;;;;;;;;;;;;;;;;5007219;28;20643;-66
2021/12/02 16:29:55;;;;;;;;;;;;;;;;;;5011932;28;19980;-67
2021/12/02 16:32:22;;;;;;;;;;;;;;;;;;5007965;28;19940;-69
2021/12/02 16:34:49;;;;;;;;;;;;;;;;;;5015812;28;19926;-66
2021/12/02 16:37:16;;;;;;;;;;;;;;;;;;5012922;28;19925;-69
2021/12/02 16:39:43;;;;;;;;;;;;;;;;;;5009453;28;19926;-66
2021/12/02 16:42:10;;;;;;;;;;;;;;;;;;5007836;28;19929;-66
2021/12/02 16:44:37;;;;;;;;;;;;;;;;;;5010573;28;20394;-67
2021/12/02 16:47:04;;;;;;;;;;;;;;;;;;5012374;28;20008;-66
2021/12/02 16:49:31;;;;;;;;;;;;;;;;;;5011773;28;19932;-67
2021/12/02 16:51:58;;;;;;;;;;;;;;;;;;5011860;28;19926;-67
2021/12/02 16:54:25;;;;;;;;;;;;;;;;;;5012649;28;20013;-67